sensor_id;sensor_type;location;lat;lon;timestamp;P1;durP1;ratioP1;P2;durP2;ratioP2
6537;SDS011;3302;52.508;13.454;2024-03-23T00:55:41;9.10;;;3.27;;
6537;SDS011;3302;52.508;13.454;2024-03-23T00:58:07;13.20;;;5.33;;
6537;SDS011;3302;52.508;13.454;2024-03-23T01:00:33;9.03;;;3.07;;
6537;SDS011;3302;52.508;13.454;2024-03-23T01:02:59;10.93;;;3.40;;
6537;SDS011;3302;52.508;13.454;2024-03-23T01:05:24;9.43;;;2.97;;
6537;SDS011;3302;52.508;13.454;2024-03-23T01:07:50;12.20;;;3.20;;
6537;SDS011;3302;52.508;13.454;2024-03-23T01:10:16;11.97;;;2.90;;
6537;SDS011;3302;52.508;13.454;2024-03-23T01:12:42;10.27;;;2.90;;
6537;SDS011;3302;52.508;13.454;2024-03-23T01:15:08;14.77;;;2.90;;
6537;SDS011;3302;52.508;13.454;2024-03-23T01:17:34;10.87;;;3.70;;
6537;SDS011;3302;52.508;13.454;2024-03-23T01:20:00;9.80;;;3.10;;
6537;SDS011;3302;52.508;13.454;2024-03-23T01:22:26;12.20;;;3.80;;
6537;SDS011;3302;52.508;13.454;2024-03-23T01:24:51;11.93;;;3.60;;
6537;SDS011;3302;52.508;13.454;2024-03-23T01:27:17;11.90;;;3.27;;
6537;SDS011;3302;52.508;13.454;2024-03-23T01:29:43;10.90;;;3.67;;
6537;SDS011;3302;52.508;13.454;2024-03-23T01:32:09;10.63;;;2.90;;
6537;SDS011;3302;52.508;13.454;2024-03-23T01:34:35;14.13;;;3.27;;
6537;SDS011;3302;52.508;13.454;2024-03-23T01:37:01;11.50;;;3.53;;
6537;SDS011;3302;52.508;13.454;2024-03-23T01:39:27;13.20;;;4.63;;
6537;SDS011;3302;52.508;13.454;2024-03-23T01:41:52;11.50;;;3.63;;
6537;SDS011;3302;52.508;13.454;2024-03-23T01:44:18;8.63;;;2.80;;
6537;SDS011;3302;52.508;13.454;2024-03-23T01:46:44;9.43;;;3.43;;
6537;SDS011;3302;52.508;13.454;2024-03-23T01:49:10;10.97;;;2.90;;
6537;SDS011;3302;52.508;13.454;2024-03-23T01:51:36;9.63;;;3.80;;
6537;SDS011;3302;52.508;13.454;2024-03-23T01:54:03;12.93;;;3.43;;
6537;SDS011;3302;52.508;13.454;2024-03-23T01:56:29;12.13;;;3.27;;
6537;SDS011;3302;52.508;13.454;2024-03-23T01:58:58;9.93;;;3.17;;
6537;SDS011;3302;52.508;13.454;2024-03-23T02:01:24;10.47;;;2.93;;
6537;SDS011;3302;52.508;13.454;2024-03-23T02:03:50;9.57;;;3.40;;
6537;SDS011;3302;52.508;13.454;2024-03-23T02:06:16;12.73;;;3.27;;
6537;SDS011;3302;52.508;13.454;2024-03-23T02:08:42;8.23;;;3.07;;
6537;SDS011;3302;52.508;13.454;2024-03-23T02:11:08;10.97;;;3.60;;
6537;SDS011;3302;52.508;13.454;2024-03-23T02:13:35;15.03;;;3.47;;
6537;SDS011;3302;52.508;13.454;2024-03-23T02:16:01;12.23;;;3.57;;
6537;SDS011;3302;52.508;13.454;2024-03-23T02:18:26;11.67;;;3.70;;
6537;SDS011;3302;52.508;13.454;2024-03-23T02:20:52;17.53;;;4.03;;
6537;SDS011;3302;52.508;13.454;2024-03-23T02:23:18;13.73;;;3.60;;
6537;SDS011;3302;52.508;13.454;2024-03-23T02:25:44;14.53;;;3.57;;
6537;SDS011;3302;52.508;13.454;2024-03-23T02:28:10;13.57;;;4.40;;
6537;SDS011;3302;52.508;13.454;2024-03-23T02:30:36;16.53;;;4.43;;
6537;SDS011;3302;52.508;13.454;2024-03-23T02:33:02;14.50;;;4.23;;
6537;SDS011;3302;52.508;13.454;2024-03-23T02:35:29;14.83;;;4.17;;
6537;SDS011;3302;52.508;13.454;2024-03-23T02:37:55;13.63;;;4.53;;
6537;SDS011;3302;52.508;13.454;2024-03-23T02:40:25;11.83;;;3.70;;
6537;SDS011;3302;52.508;13.454;2024-03-23T02:42:51;10.23;;;3.90;;
6537;SDS011;3302;52.508;13.454;2024-03-23T02:45:17;11.87;;;5.00;;
6537;SDS011;3302;52.508;13.454;2024-03-23T02:47:43;10.03;;;3.40;;
6537;SDS011;3302;52.508;13.454;2024-03-23T02:50:09;14.83;;;4.00;;
6537;SDS011;3302;52.508;13.454;2024-03-23T02:52:35;13.57;;;3.67;;
6537;SDS011;3302;52.508;13.454;2024-03-23T02:55:02;11.60;;;3.77;;
6537;SDS011;3302;52.508;13.454;2024-03-23T02:57:28;13.80;;;4.23;;
6537;SDS011;3302;52.508;13.454;2024-03-23T02:59:54;15.40;;;4.30;;
6537;SDS011;3302;52.508;13.454;2024-03-23T03:02:20;15.53;;;3.57;;
6537;SDS011;3302;52.508;13.454;2024-03-23T03:04:46;15.10;;;4.00;;
6537;SDS011;3302;52.508;13.454;2024-03-23T03:07:13;12.00;;;3.93;;
6537;SDS011;3302;52.508;13.454;2024-03-23T03:09:39;13.43;;;3.80;;
6537;SDS011;3302;52.508;13.454;2024-03-23T03:12:08;13.87;;;4.10;;
6537;SDS011;3302;52.508;13.454;2024-03-23T03:14:34;15.63;;;3.87;;
6537;SDS011;3302;52.508;13.454;2024-03-23T03:16:59;16.10;;;3.97;;
6537;SDS011;3302;52.508;13.454;2024-03-23T03:19:25;15.67;;;4.03;;
6537;SDS011;3302;52.508;13.454;2024-03-23T03:21:51;16.10;;;5.33;;
6537;SDS011;3302;52.508;13.454;2024-03-23T03:24:18;12.37;;;4.10;;
6537;SDS011;3302;52.508;13.454;2024-03-23T03:26:44;13.17;;;3.93;;
6537;SDS011;3302;52.508;13.454;2024-03-23T03:29:10;15.03;;;3.90;;
6537;SDS011;3302;52.508;13.454;2024-03-23T03:31:37;11.33;;;4.23;;
6537;SDS011;3302;52.508;13.454;2024-03-23T03:34:04;12.90;;;4.40;;
6537;SDS011;3302;52.508;13.454;2024-03-23T03:36:29;11.77;;;4.23;;
6537;SDS011;3302;52.508;13.454;2024-03-23T03:38:55;11.67;;;4.17;;
6537;SDS011;3302;52.508;13.454;2024-03-23T03:41:21;12.23;;;4.60;;
6537;SDS011;3302;52.508;13.454;2024-03-23T03:43:47;12.03;;;4.43;;
6537;SDS011;3302;52.508;13.454;2024-03-23T03:46:13;11.47;;;4.07;;
6537;SDS011;3302;52.508;13.454;2024-03-23T03:48:38;11.90;;;3.77;;
6537;SDS011;3302;52.508;13.454;2024-03-23T03:51:04;9.20;;;3.63;;
6537;SDS011;3302;52.508;13.454;2024-03-23T03:53:30;12.30;;;3.70;;
6537;SDS011;3302;52.508;13.454;2024-03-23T03:55:56;10.40;;;3.47;;
6537;SDS011;3302;52.508;13.454;2024-03-23T03:58:26;8.60;;;3.87;;
6537;SDS011;3302;52.508;13.454;2024-03-23T04:00:51;9.70;;;3.60;;
6537;SDS011;3302;52.508;13.454;2024-03-23T04:03:17;9.77;;;2.87;;
6537;SDS011;3302;52.508;13.454;2024-03-23T04:05:47;10.10;;;3.37;;
6537;SDS011;3302;52.508;13.454;2024-03-23T04:08:18;10.00;;;3.67;;
6537;SDS011;3302;52.508;13.454;2024-03-23T04:10:44;13.20;;;3.80;;
6537;SDS011;3302;52.508;13.454;2024-03-23T04:13:11;9.67;;;3.20;;
6537;SDS011;3302;52.508;13.454;2024-03-23T04:15:37;5.73;;;2.77;;
6537;SDS011;3302;52.508;13.454;2024-03-23T04:18:03;12.10;;;2.87;;
6537;SDS011;3302;52.508;13.454;2024-03-23T04:20:29;11.33;;;2.83;;
6537;SDS011;3302;52.508;13.454;2024-03-23T04:22:55;6.50;;;2.33;;
6537;SDS011;3302;52.508;13.454;2024-03-23T04:25:21;4.30;;;2.00;;
6537;SDS011;3302;52.508;13.454;2024-03-23T04:27:46;8.93;;;2.27;;
6537;SDS011;3302;52.508;13.454;2024-03-23T04:30:12;6.37;;;1.83;;
6537;SDS011;3302;52.508;13.454;2024-03-23T04:32:38;4.63;;;1.80;;
6537;SDS011;3302;52.508;13.454;2024-03-23T04:35:04;9.13;;;2.20;;
6537;SDS011;3302;52.508;13.454;2024-03-23T04:37:35;7.83;;;2.23;;
6537;SDS011;3302;52.508;13.454;2024-03-23T04:40:02;6.17;;;2.10;;
6537;SDS011;3302;52.508;13.454;2024-03-23T04:42:28;6.17;;;2.13;;
6537;SDS011;3302;52.508;13.454;2024-03-23T04:44:54;6.87;;;2.03;;
6537;SDS011;3302;52.508;13.454;2024-03-23T04:47:20;6.40;;;2.10;;
6537;SDS011;3302;52.508;13.454;2024-03-23T04:49:46;4.90;;;1.80;;
6537;SDS011;3302;52.508;13.454;2024-03-23T04:52:12;5.20;;;2.03;;
6537;SDS011;3302;52.508;13.454;2024-03-23T04:54:38;4.47;;;2.07;;
6537;SDS011;3302;52.508;13.454;2024-03-23T04:57:05;5.57;;;2.00;;
6537;SDS011;3302;52.508;13.454;2024-03-23T04:59:32;4.13;;;2.07;;
6537;SDS011;3302;52.508;13.454;2024-03-23T05:01:58;6.70;;;2.63;;
6537;SDS011;3302;52.508;13.454;2024-03-23T05:04:25;6.50;;;2.10;;
6537;SDS011;3302;52.508;13.454;2024-03-23T05:06:51;4.40;;;2.07;;
6537;SDS011;3302;52.508;13.454;2024-03-23T05:09:16;5.93;;;2.10;;
6537;SDS011;3302;52.508;13.454;2024-03-23T05:11:42;6.87;;;1.97;;
6537;SDS011;3302;52.508;13.454;2024-03-23T05:14:08;4.27;;;1.90;;
6537;SDS011;3302;52.508;13.454;2024-03-23T05:16:34;5.93;;;2.07;;
6537;SDS011;3302;52.508;13.454;2024-03-23T05:18:59;4.77;;;1.80;;
6537;SDS011;3302;52.508;13.454;2024-03-23T05:21:26;4.37;;;2.20;;
6537;SDS011;3302;52.508;13.454;2024-03-23T05:23:53;5.57;;;2.03;;
6537;SDS011;3302;52.508;13.454;2024-03-23T05:26:20;6.57;;;2.20;;
6537;SDS011;3302;52.508;13.454;2024-03-23T05:28:47;7.03;;;2.10;;
6537;SDS011;3302;52.508;13.454;2024-03-23T05:31:22;5.77;;;2.30;;
6537;SDS011;3302;52.508;13.454;2024-03-23T05:33:48;5.63;;;2.10;;
6537;SDS011;3302;52.508;13.454;2024-03-23T05:36:14;6.33;;;2.30;;
6537;SDS011;3302;52.508;13.454;2024-03-23T05:38:40;4.27;;;2.20;;
6537;SDS011;3302;52.508;13.454;2024-03-23T05:41:05;4.93;;;2.30;;
6537;SDS011;3302;52.508;13.454;2024-03-23T05:43:31;8.50;;;2.97;;
6537;SDS011;3302;52.508;13.454;2024-03-23T05:45:57;5.00;;;2.33;;
6537;SDS011;3302;52.508;13.454;2024-03-23T05:48:26;7.73;;;2.73;;
6537;SDS011;3302;52.508;13.454;2024-03-23T05:50:52;4.00;;;2.47;;
6537;SDS011;3302;52.508;13.454;2024-03-23T05:53:18;6.23;;;2.30;;
6537;SDS011;3302;52.508;13.454;2024-03-23T05:55:48;8.13;;;2.60;;
6537;SDS011;3302;52.508;13.454;2024-03-23T05:58:15;8.40;;;2.40;;
6537;SDS011;3302;52.508;13.454;2024-03-23T06:00:42;5.53;;;2.50;;
6537;SDS011;3302;52.508;13.454;2024-03-23T06:03:08;6.60;;;2.50;;
6537;SDS011;3302;52.508;13.454;2024-03-23T06:05:35;8.10;;;2.60;;
6537;SDS011;3302;52.508;13.454;2024-03-23T06:08:02;6.53;;;2.90;;
6537;SDS011;3302;52.508;13.454;2024-03-23T06:10:28;10.23;;;4.03;;
6537;SDS011;3302;52.508;13.454;2024-03-23T06:12:54;7.40;;;2.63;;
6537;SDS011;3302;52.508;13.454;2024-03-23T06:15:21;10.53;;;3.20;;
6537;SDS011;3302;52.508;13.454;2024-03-23T06:17:48;7.67;;;2.93;;
6537;SDS011;3302;52.508;13.454;2024-03-23T06:20:14;8.07;;;3.03;;
6537;SDS011;3302;52.508;13.454;2024-03-23T06:22:40;9.10;;;3.20;;
6537;SDS011;3302;52.508;13.454;2024-03-23T06:25:06;8.30;;;3.33;;
6537;SDS011;3302;52.508;13.454;2024-03-23T06:27:32;8.37;;;2.93;;
6537;SDS011;3302;52.508;13.454;2024-03-23T06:29:59;8.87;;;3.37;;
6537;SDS011;3302;52.508;13.454;2024-03-23T06:32:25;9.50;;;3.23;;
6537;SDS011;3302;52.508;13.454;2024-03-23T06:34:50;10.50;;;3.40;;
6537;SDS011;3302;52.508;13.454;2024-03-23T06:37:16;8.43;;;3.10;;
6537;SDS011;3302;52.508;13.454;2024-03-23T06:39:42;13.17;;;3.23;;
6537;SDS011;3302;52.508;13.454;2024-03-23T06:42:08;9.00;;;2.67;;
6537;SDS011;3302;52.508;13.454;2024-03-23T06:44:34;8.47;;;3.20;;
6537;SDS011;3302;52.508;13.454;2024-03-23T06:47:00;9.77;;;3.17;;
6537;SDS011;3302;52.508;13.454;2024-03-23T06:49:25;8.87;;;2.43;;
6537;SDS011;3302;52.508;13.454;2024-03-23T06:51:51;5.87;;;2.63;;
6537;SDS011;3302;52.508;13.454;2024-03-23T06:54:20;9.93;;;2.83;;
6537;SDS011;3302;52.508;13.454;2024-03-23T06:56:46;10.50;;;3.10;;
6537;SDS011;3302;52.508;13.454;2024-03-23T06:59:12;11.17;;;2.90;;
6537;SDS011;3302;52.508;13.454;2024-03-23T07:01:37;7.50;;;2.43;;
6537;SDS011;3302;52.508;13.454;2024-03-23T07:04:03;8.33;;;2.50;;
6537;SDS011;3302;52.508;13.454;2024-03-23T07:06:30;9.10;;;2.80;;
6537;SDS011;3302;52.508;13.454;2024-03-23T07:08:56;9.70;;;3.23;;
6537;SDS011;3302;52.508;13.454;2024-03-23T07:11:22;6.10;;;2.43;;
6537;SDS011;3302;52.508;13.454;2024-03-23T07:13:52;10.67;;;2.80;;
6537;SDS011;3302;52.508;13.454;2024-03-23T07:16:21;6.07;;;2.23;;
6537;SDS011;3302;52.508;13.454;2024-03-23T07:18:46;7.00;;;2.63;;
6537;SDS011;3302;52.508;13.454;2024-03-23T07:21:12;7.57;;;2.73;;
6537;SDS011;3302;52.508;13.454;2024-03-23T07:23:41;10.80;;;3.73;;
6537;SDS011;3302;52.508;13.454;2024-03-23T07:26:10;5.90;;;2.67;;
6537;SDS011;3302;52.508;13.454;2024-03-23T07:28:36;10.47;;;3.10;;
6537;SDS011;3302;52.508;13.454;2024-03-23T07:31:10;8.33;;;2.40;;
6537;SDS011;3302;52.508;13.454;2024-03-23T07:33:37;7.53;;;2.40;;
6537;SDS011;3302;52.508;13.454;2024-03-23T07:36:06;9.33;;;2.83;;
6537;SDS011;3302;52.508;13.454;2024-03-23T07:38:32;6.87;;;2.70;;
6537;SDS011;3302;52.508;13.454;2024-03-23T07:41:11;10.33;;;2.80;;
6537;SDS011;3302;52.508;13.454;2024-03-23T07:43:40;7.73;;;2.60;;
6537;SDS011;3302;52.508;13.454;2024-03-23T07:46:06;7.20;;;2.97;;
6537;SDS011;3302;52.508;13.454;2024-03-23T07:48:32;5.87;;;2.60;;
6537;SDS011;3302;52.508;13.454;2024-03-23T07:53:28;7.60;;;2.77;;
6537;SDS011;3302;52.508;13.454;2024-03-23T07:55:58;5.33;;;2.30;;
6537;SDS011;3302;52.508;13.454;2024-03-23T07:58:26;5.50;;;2.37;;
6537;SDS011;3302;52.508;13.454;2024-03-23T08:00:55;4.27;;;2.70;;
6537;SDS011;3302;52.508;13.454;2024-03-23T08:03:22;6.47;;;3.07;;
6537;SDS011;3302;52.508;13.454;2024-03-23T08:05:48;5.03;;;2.40;;
6537;SDS011;3302;52.508;13.454;2024-03-23T08:08:14;5.80;;;2.53;;
6537;SDS011;3302;52.508;13.454;2024-03-23T08:10:50;7.27;;;2.80;;
6537;SDS011;3302;52.508;13.454;2024-03-23T08:13:16;6.43;;;2.77;;
6537;SDS011;3302;52.508;13.454;2024-03-23T08:15:43;4.37;;;2.10;;
6537;SDS011;3302;52.508;13.454;2024-03-23T08:18:09;4.97;;;2.17;;
6537;SDS011;3302;52.508;13.454;2024-03-23T08:20:36;8.83;;;2.30;;
6537;SDS011;3302;52.508;13.454;2024-03-23T08:23:02;7.40;;;2.37;;
6537;SDS011;3302;52.508;13.454;2024-03-23T08:25:33;5.10;;;2.27;;
6537;SDS011;3302;52.508;13.454;2024-03-23T08:27:59;6.20;;;2.30;;
6537;SDS011;3302;52.508;13.454;2024-03-23T08:30:25;6.33;;;2.10;;
6537;SDS011;3302;52.508;13.454;2024-03-23T08:32:51;7.67;;;2.23;;
6537;SDS011;3302;52.508;13.454;2024-03-23T08:35:17;6.60;;;2.90;;
6537;SDS011;3302;52.508;13.454;2024-03-23T08:37:43;7.53;;;2.40;;
6537;SDS011;3302;52.508;13.454;2024-03-23T08:40:09;6.40;;;2.70;;
6537;SDS011;3302;52.508;13.454;2024-03-23T08:42:35;7.03;;;3.77;;
6537;SDS011;3302;52.508;13.454;2024-03-23T08:45:02;7.07;;;3.07;;
6537;SDS011;3302;52.508;13.454;2024-03-23T08:47:27;9.77;;;2.57;;
6537;SDS011;3302;52.508;13.454;2024-03-23T08:49:53;9.80;;;3.17;;
6537;SDS011;3302;52.508;13.454;2024-03-23T08:52:20;8.57;;;2.90;;
6537;SDS011;3302;52.508;13.454;2024-03-23T08:54:48;8.67;;;3.07;;
6537;SDS011;3302;52.508;13.454;2024-03-23T08:57:14;7.60;;;2.67;;
6537;SDS011;3302;52.508;13.454;2024-03-23T08:59:39;9.60;;;3.00;;
6537;SDS011;3302;52.508;13.454;2024-03-23T09:02:05;5.90;;;2.10;;
6537;SDS011;3302;52.508;13.454;2024-03-23T09:04:31;7.83;;;2.30;;
6537;SDS011;3302;52.508;13.454;2024-03-23T09:06:57;8.83;;;2.63;;
6537;SDS011;3302;52.508;13.454;2024-03-23T09:09:25;7.13;;;2.37;;
6537;SDS011;3302;52.508;13.454;2024-03-23T09:11:50;7.23;;;2.67;;
6537;SDS011;3302;52.508;13.454;2024-03-23T09:14:16;6.63;;;2.30;;
6537;SDS011;3302;52.508;13.454;2024-03-23T09:16:42;7.00;;;2.30;;
6537;SDS011;3302;52.508;13.454;2024-03-23T09:19:08;5.27;;;2.50;;
6537;SDS011;3302;52.508;13.454;2024-03-23T09:21:34;6.57;;;2.20;;
6537;SDS011;3302;52.508;13.454;2024-03-23T09:23:59;6.27;;;1.87;;
6537;SDS011;3302;52.508;13.454;2024-03-23T09:26:25;5.33;;;2.00;;
6537;SDS011;3302;52.508;13.454;2024-03-23T09:28:51;4.83;;;2.10;;
6537;SDS011;3302;52.508;13.454;2024-03-23T09:31:17;7.50;;;2.10;;
6537;SDS011;3302;52.508;13.454;2024-03-23T09:33:43;6.73;;;2.53;;
6537;SDS011;3302;52.508;13.454;2024-03-23T09:36:09;5.17;;;1.60;;
6537;SDS011;3302;52.508;13.454;2024-03-23T09:38:35;6.07;;;2.10;;
6537;SDS011;3302;52.508;13.454;2024-03-23T09:41:06;6.87;;;2.23;;
6537;SDS011;3302;52.508;13.454;2024-03-23T09:43:33;6.37;;;2.33;;
6537;SDS011;3302;52.508;13.454;2024-03-23T09:45:59;6.27;;;2.27;;
6537;SDS011;3302;52.508;13.454;2024-03-23T09:48:25;6.87;;;1.87;;
6537;SDS011;3302;52.508;13.454;2024-03-23T09:50:51;4.87;;;1.57;;
6537;SDS011;3302;52.508;13.454;2024-03-23T09:53:17;9.03;;;2.10;;
6537;SDS011;3302;52.508;13.454;2024-03-23T09:55:43;5.77;;;1.77;;
6537;SDS011;3302;52.508;13.454;2024-03-23T09:58:13;7.57;;;1.77;;
6537;SDS011;3302;52.508;13.454;2024-03-23T10:00:40;0.10;;;0.10;;
6537;SDS011;3302;52.508;13.454;2024-03-23T10:03:06;0.00;;;0.00;;
6537;SDS011;3302;52.508;13.454;2024-03-23T10:05:32;0.00;;;0.00;;
6537;SDS011;3302;52.508;13.454;2024-03-23T10:10:42;0.03;;;0.03;;
6537;SDS011;3302;52.508;13.454;2024-03-23T10:13:08;0.10;;;0.10;;
6537;SDS011;3302;52.508;13.454;2024-03-23T10:15:35;0.10;;;0.10;;
6537;SDS011;3302;52.508;13.454;2024-03-23T10:18:20;0.10;;;0.10;;
6537;SDS011;3302;52.508;13.454;2024-03-23T10:20:50;0.07;;;0.07;;
6537;SDS011;3302;52.508;13.454;2024-03-23T10:23:33;0.10;;;0.10;;
6537;SDS011;3302;52.508;13.454;2024-03-23T10:26:12;0.10;;;0.10;;
6537;SDS011;3302;52.508;13.454;2024-03-23T10:28:50;0.07;;;0.07;;
6537;SDS011;3302;52.508;13.454;2024-03-23T10:31:16;0.10;;;0.10;;
6537;SDS011;3302;52.508;13.454;2024-03-23T10:33:46;0.10;;;0.10;;
6537;SDS011;3302;52.508;13.454;2024-03-23T10:36:13;0.10;;;0.10;;
6537;SDS011;3302;52.508;13.454;2024-03-23T10:38:43;0.10;;;0.10;;
6537;SDS011;3302;52.508;13.454;2024-03-23T10:41:10;0.00;;;0.00;;
6537;SDS011;3302;52.508;13.454;2024-03-23T10:43:36;0.03;;;0.03;;
6537;SDS011;3302;52.508;13.454;2024-03-23T10:46:03;0.17;;;0.17;;
6537;SDS011;3302;52.508;13.454;2024-03-23T10:48:29;0.10;;;0.10;;
6537;SDS011;3302;52.508;13.454;2024-03-23T10:50:56;0.20;;;0.20;;
6537;SDS011;3302;52.508;13.454;2024-03-23T10:53:23;0.00;;;0.00;;
6537;SDS011;3302;52.508;13.454;2024-03-23T10:55:51;0.10;;;0.10;;
6537;SDS011;3302;52.508;13.454;2024-03-23T10:58:20;0.10;;;0.10;;
6537;SDS011;3302;52.508;13.454;2024-03-23T11:00:53;0.10;;;0.10;;
6537;SDS011;3302;52.508;13.454;2024-03-23T11:03:35;0.00;;;0.00;;
6537;SDS011;3302;52.508;13.454;2024-03-23T11:06:05;0.07;;;0.07;;
6537;SDS011;3302;52.508;13.454;2024-03-23T11:08:36;0.10;;;0.10;;
6537;SDS011;3302;52.508;13.454;2024-03-23T11:13:47;0.10;;;0.10;;
6537;SDS011;3302;52.508;13.454;2024-03-23T11:16:17;0.10;;;0.10;;
6537;SDS011;3302;52.508;13.454;2024-03-23T11:18:50;0.20;;;0.20;;
6537;SDS011;3302;52.508;13.454;2024-03-23T11:24:20;0.10;;;0.10;;
6537;SDS011;3302;52.508;13.454;2024-03-23T11:26:47;0.10;;;0.10;;
6537;SDS011;3302;52.508;13.454;2024-03-23T11:29:14;0.10;;;0.10;;
6537;SDS011;3302;52.508;13.454;2024-03-23T11:31:50;0.10;;;0.10;;
6537;SDS011;3302;52.508;13.454;2024-03-23T11:34:18;0.10;;;0.10;;
6537;SDS011;3302;52.508;13.454;2024-03-23T11:36:47;0.10;;;0.10;;
6537;SDS011;3302;52.508;13.454;2024-03-23T11:39:16;0.10;;;0.10;;
6537;SDS011;3302;52.508;13.454;2024-03-23T11:41:48;0.00;;;0.00;;
6537;SDS011;3302;52.508;13.454;2024-03-23T11:44:21;0.10;;;0.10;;
6537;SDS011;3302;52.508;13.454;2024-03-23T11:46:51;0.10;;;0.10;;
6537;SDS011;3302;52.508;13.454;2024-03-23T11:49:27;0.10;;;0.10;;
6537;SDS011;3302;52.508;13.454;2024-03-23T11:51:54;0.20;;;0.20;;
6537;SDS011;3302;52.508;13.454;2024-03-23T11:54:24;0.10;;;0.10;;
6537;SDS011;3302;52.508;13.454;2024-03-23T11:56:58;0.07;;;0.07;;
6537;SDS011;3302;52.508;13.454;2024-03-23T11:59:35;0.10;;;0.10;;
6537;SDS011;3302;52.508;13.454;2024-03-23T12:02:06;0.13;;;0.13;;
6537;SDS011;3302;52.508;13.454;2024-03-23T12:04:37;0.20;;;0.20;;
6537;SDS011;3302;52.508;13.454;2024-03-23T12:07:13;0.10;;;0.10;;
6537;SDS011;3302;52.508;13.454;2024-03-23T12:09:39;0.10;;;0.10;;
6537;SDS011;3302;52.508;13.454;2024-03-23T12:12:10;0.20;;;0.20;;
6537;SDS011;3302;52.508;13.454;2024-03-23T12:14:43;0.10;;;0.10;;
6537;SDS011;3302;52.508;13.454;2024-03-23T12:17:13;0.10;;;0.10;;
6537;SDS011;3302;52.508;13.454;2024-03-23T12:19:40;0.10;;;0.10;;
6537;SDS011;3302;52.508;13.454;2024-03-23T12:22:07;0.20;;;0.20;;
6537;SDS011;3302;52.508;13.454;2024-03-23T12:24:34;0.20;;;0.20;;
6537;SDS011;3302;52.508;13.454;2024-03-23T12:27:00;0.10;;;0.10;;
6537;SDS011;3302;52.508;13.454;2024-03-23T12:29:30;0.20;;;0.20;;
6537;SDS011;3302;52.508;13.454;2024-03-23T12:31:59;0.10;;;0.10;;
6537;SDS011;3302;52.508;13.454;2024-03-23T12:34:28;0.10;;;0.10;;
6537;SDS011;3302;52.508;13.454;2024-03-23T12:36:55;0.10;;;0.10;;
6537;SDS011;3302;52.508;13.454;2024-03-23T12:39:21;0.10;;;0.10;;
6537;SDS011;3302;52.508;13.454;2024-03-23T12:41:48;0.17;;;0.17;;
6537;SDS011;3302;52.508;13.454;2024-03-23T12:44:14;0.10;;;0.10;;
6537;SDS011;3302;52.508;13.454;2024-03-23T12:46:41;0.20;;;0.20;;
6537;SDS011;3302;52.508;13.454;2024-03-23T12:49:07;3.53;;;1.60;;
6537;SDS011;3302;52.508;13.454;2024-03-23T12:54:05;0.10;;;0.10;;
6537;SDS011;3302;52.508;13.454;2024-03-23T12:56:31;0.20;;;0.20;;
6537;SDS011;3302;52.508;13.454;2024-03-23T12:58:57;0.77;;;0.77;;
6537;SDS011;3302;52.508;13.454;2024-03-23T13:01:23;0.20;;;0.20;;
6537;SDS011;3302;52.508;13.454;2024-03-23T13:03:49;0.20;;;0.20;;
6537;SDS011;3302;52.508;13.454;2024-03-23T13:06:16;0.13;;;0.13;;
6537;SDS011;3302;52.508;13.454;2024-03-23T13:08:44;0.10;;;0.10;;
6537;SDS011;3302;52.508;13.454;2024-03-23T13:11:10;0.20;;;0.20;;
6537;SDS011;3302;52.508;13.454;2024-03-23T13:13:36;0.20;;;0.20;;
6537;SDS011;3302;52.508;13.454;2024-03-23T13:16:03;0.10;;;0.10;;
6537;SDS011;3302;52.508;13.454;2024-03-23T13:18:30;0.10;;;0.10;;
6537;SDS011;3302;52.508;13.454;2024-03-23T13:20:57;2.07;;;1.70;;
6537;SDS011;3302;52.508;13.454;2024-03-23T13:23:23;0.20;;;0.20;;
6537;SDS011;3302;52.508;13.454;2024-03-23T13:25:52;0.23;;;0.23;;
6537;SDS011;3302;52.508;13.454;2024-03-23T13:28:19;0.20;;;0.20;;
6537;SDS011;3302;52.508;13.454;2024-03-23T13:33:21;0.20;;;0.20;;
6537;SDS011;3302;52.508;13.454;2024-03-23T13:38:16;0.10;;;0.10;;
6537;SDS011;3302;52.508;13.454;2024-03-23T13:43:17;0.20;;;0.20;;
6537;SDS011;3302;52.508;13.454;2024-03-23T13:45:42;0.10;;;0.10;;
6537;SDS011;3302;52.508;13.454;2024-03-23T13:48:08;0.20;;;0.20;;
6537;SDS011;3302;52.508;13.454;2024-03-23T13:50:34;0.20;;;0.20;;
6537;SDS011;3302;52.508;13.454;2024-03-23T13:53:00;0.20;;;0.20;;
6537;SDS011;3302;52.508;13.454;2024-03-23T13:55:26;0.43;;;0.43;;
6537;SDS011;3302;52.508;13.454;2024-03-23T13:57:52;0.20;;;0.20;;
6537;SDS011;3302;52.508;13.454;2024-03-23T14:00:17;0.30;;;0.30;;
6537;SDS011;3302;52.508;13.454;2024-03-23T14:02:44;0.20;;;0.20;;
6537;SDS011;3302;52.508;13.454;2024-03-23T14:05:10;0.30;;;0.30;;
6537;SDS011;3302;52.508;13.454;2024-03-23T14:07:36;0.23;;;0.23;;
6537;SDS011;3302;52.508;13.454;2024-03-23T14:10:05;0.30;;;0.30;;
6537;SDS011;3302;52.508;13.454;2024-03-23T14:12:32;0.20;;;0.20;;
6537;SDS011;3302;52.508;13.454;2024-03-23T14:14:57;0.20;;;0.20;;
6537;SDS011;3302;52.508;13.454;2024-03-23T14:17:24;0.10;;;0.10;;
6537;SDS011;3302;52.508;13.454;2024-03-23T14:19:51;0.70;;;0.70;;
6537;SDS011;3302;52.508;13.454;2024-03-23T14:22:17;0.20;;;0.20;;
6537;SDS011;3302;52.508;13.454;2024-03-23T14:24:44;0.20;;;0.20;;
6537;SDS011;3302;52.508;13.454;2024-03-23T14:27:10;0.20;;;0.20;;
6537;SDS011;3302;52.508;13.454;2024-03-23T14:29:36;0.20;;;0.20;;
6537;SDS011;3302;52.508;13.454;2024-03-23T14:32:02;0.47;;;0.47;;
6537;SDS011;3302;52.508;13.454;2024-03-23T14:34:28;0.20;;;0.20;;
6537;SDS011;3302;52.508;13.454;2024-03-23T14:36:54;0.30;;;0.30;;
6537;SDS011;3302;52.508;13.454;2024-03-23T14:39:23;0.30;;;0.30;;
6537;SDS011;3302;52.508;13.454;2024-03-23T14:41:52;0.20;;;0.20;;
6537;SDS011;3302;52.508;13.454;2024-03-23T14:44:17;0.20;;;0.20;;
6537;SDS011;3302;52.508;13.454;2024-03-23T14:46:44;0.20;;;0.20;;
6537;SDS011;3302;52.508;13.454;2024-03-23T14:49:14;0.20;;;0.20;;
6537;SDS011;3302;52.508;13.454;2024-03-23T14:51:42;0.27;;;0.27;;
6537;SDS011;3302;52.508;13.454;2024-03-23T14:54:08;0.20;;;0.20;;
6537;SDS011;3302;52.508;13.454;2024-03-23T14:56:33;0.27;;;0.27;;
6537;SDS011;3302;52.508;13.454;2024-03-23T14:59:00;0.10;;;0.10;;
6537;SDS011;3302;52.508;13.454;2024-03-23T15:01:25;0.30;;;0.30;;
6537;SDS011;3302;52.508;13.454;2024-03-23T15:03:51;0.20;;;0.20;;
6537;SDS011;3302;52.508;13.454;2024-03-23T15:06:18;0.30;;;0.30;;
6537;SDS011;3302;52.508;13.454;2024-03-23T15:08:44;1.47;;;0.53;;
6537;SDS011;3302;52.508;13.454;2024-03-23T15:11:10;0.40;;;0.40;;
6537;SDS011;3302;52.508;13.454;2024-03-23T15:13:36;0.10;;;0.10;;
6537;SDS011;3302;52.508;13.454;2024-03-23T15:16:04;0.10;;;0.10;;
6537;SDS011;3302;52.508;13.454;2024-03-23T15:18:30;0.20;;;0.20;;
6537;SDS011;3302;52.508;13.454;2024-03-23T15:20:58;0.20;;;0.20;;
6537;SDS011;3302;52.508;13.454;2024-03-23T15:23:28;0.20;;;0.20;;
6537;SDS011;3302;52.508;13.454;2024-03-23T15:25:55;0.20;;;0.20;;
6537;SDS011;3302;52.508;13.454;2024-03-23T15:28:22;0.20;;;0.20;;
6537;SDS011;3302;52.508;13.454;2024-03-23T15:30:48;0.30;;;0.30;;
6537;SDS011;3302;52.508;13.454;2024-03-23T15:33:14;0.20;;;0.20;;
6537;SDS011;3302;52.508;13.454;2024-03-23T15:35:40;0.20;;;0.20;;
6537;SDS011;3302;52.508;13.454;2024-03-23T15:38:07;0.20;;;0.20;;
6537;SDS011;3302;52.508;13.454;2024-03-23T15:40:33;0.20;;;0.20;;
6537;SDS011;3302;52.508;13.454;2024-03-23T15:42:59;0.10;;;0.10;;
6537;SDS011;3302;52.508;13.454;2024-03-23T15:45:25;0.30;;;0.30;;
6537;SDS011;3302;52.508;13.454;2024-03-23T15:47:52;0.10;;;0.10;;
6537;SDS011;3302;52.508;13.454;2024-03-23T15:50:17;0.33;;;0.33;;
6537;SDS011;3302;52.508;13.454;2024-03-23T15:52:43;0.20;;;0.20;;
6537;SDS011;3302;52.508;13.454;2024-03-23T15:55:09;0.20;;;0.20;;
6537;SDS011;3302;52.508;13.454;2024-03-23T15:57:35;0.20;;;0.20;;
6537;SDS011;3302;52.508;13.454;2024-03-23T16:00:02;0.20;;;0.20;;
6537;SDS011;3302;52.508;13.454;2024-03-23T16:02:28;0.17;;;0.17;;
6537;SDS011;3302;52.508;13.454;2024-03-23T16:04:54;0.20;;;0.20;;
6537;SDS011;3302;52.508;13.454;2024-03-23T16:07:20;0.20;;;0.20;;
6537;SDS011;3302;52.508;13.454;2024-03-23T16:09:46;0.30;;;0.30;;
6537;SDS011;3302;52.508;13.454;2024-03-23T16:12:12;0.20;;;0.20;;